Time;durP1;ratioP1;P1;durP2;ratioP2;P2;SDS_P1;SDS_P2;PMS_P1;PMS_P2;Temp;Humidity;BMP_temperature;BMP_pressure;BME280_temperature;BME280_humidity;BME280_pressure;Samples;Min_cycle;Max_cycle;Signal;HPM_P1;HPM_P2
2022/06/13 00:01:12;;;;;;;4.53;1.67;;;;;;;-148.56;100.00;61375.16;5033026;28;20033;-30
2022/06/13 00:03:38;;;;;;;3.00;1.50;;;;;;;-148.56;100.00;61375.16;5044151;28;20028;-32
2022/06/13 00:06:03;;;;;;;2.85;1.50;;;;;;;-148.56;100.00;61375.16;5041230;28;20038;-29
2022/06/13 00:08:29;;;;;;;3.20;1.30;;;;;;;-148.56;100.00;61375.16;5040762;28;20063;-29
2022/06/13 00:10:54;;;;;;;3.20;1.50;;;;;;;-148.56;100.00;61375.16;5030441;28;20029;-33
2022/06/13 00:13:19;;;;;;;4.00;1.40;;;;;;;-148.56;100.00;61375.16;5038175;28;20021;-29
2022/06/13 00:15:45;;;;;;;5.88;1.50;;;;;;;-148.56;100.00;61375.16;5043260;28;20036;-34
2022/06/13 00:18:10;;;;;;;3.33;1.40;;;;;;;-148.56;100.00;61375.16;5040321;28;20039;-29
2022/06/13 00:20:36;;;;;;;2.42;1.40;;;;;;;-148.56;100.00;61375.16;5042489;28;20032;-28
2022/06/13 00:23:01;;;;;;;2.45;1.40;;;;;;;-148.56;100.00;61375.16;5042520;28;20043;-29
2022/06/13 00:25:27;;;;;;;3.42;1.40;;;;;;;-148.56;100.00;61375.16;5044172;28;20658;-32
2022/06/13 00:27:52;;;;;;;2.45;1.30;;;;;;;-148.56;100.00;61375.16;5043159;28;20765;-33
2022/06/13 00:30:17;;;;;;;3.20;1.65;;;;;;;-148.56;100.00;61375.16;5042279;28;20024;-29
2022/06/13 00:32:43;;;;;;;3.28;1.40;;;;;;;-148.56;100.00;61375.16;5038916;28;20028;-36
2022/06/13 00:35:08;;;;;;;3.15;1.30;;;;;;;-148.56;100.00;61375.16;5043549;28;20028;-29
2022/06/13 00:37:34;;;;;;;2.58;1.40;;;;;;;-148.56;100.00;61375.16;5045044;28;20098;-36
2022/06/13 00:39:59;;;;;;;3.00;1.42;;;;;;;-148.56;100.00;61375.16;5038106;28;21532;-32
2022/06/13 00:42:25;;;;;;;1.77;1.27;;;;;;;-148.56;100.00;61375.16;5043350;28;20050;-31
2022/06/13 00:45:03;;;;;;;2.67;1.27;;;;;;;-148.56;100.00;61375.16;5038091;28;20041;-30
2022/06/13 00:47:28;;;;;;;3.78;1.70;;;;;;;-148.56;100.00;61375.16;5044059;28;20029;-29
2022/06/13 00:49:54;;;;;;;2.22;1.17;;;;;;;-148.56;100.00;61375.16;5038344;28;20032;-31
2022/06/13 00:52:34;;;;;;;2.78;1.02;;;;;;;-148.56;100.00;61375.16;5028306;28;20451;-34
2022/06/13 00:55:00;;;;;;;3.17;1.35;;;;;;;-148.56;100.00;61375.16;5041839;28;20024;-32
2022/06/13 00:57:27;;;;;;;2.35;1.40;;;;;;;-148.56;100.00;61375.16;5031798;28;20036;-30
2022/06/13 00:59:54;;;;;;;4.43;1.42;;;;;;;-148.56;100.00;61375.16;5034754;28;21147;-30
2022/06/13 01:02:21;;;;;;;3.22;1.50;;;;;;;-148.56;100.00;61375.16;5032530;28;20085;-29
2022/06/13 01:04:47;;;;;;;2.08;1.20;;;;;;;-148.56;100.00;61375.16;5032109;28;20020;-33
2022/06/13 01:07:12;;;;;;;2.25;1.30;;;;;;;-148.56;100.00;61375.16;5032238;28;20679;-30
2022/06/13 01:12:22;;;;;;;3.03;1.42;;;;;;;-148.56;100.00;61375.16;5041856;28;20127;-29
2022/06/13 01:15:14;;;;;;;2.08;1.13;;;;;;;-148.56;100.00;61375.16;5043033;28;20024;-35
2022/06/13 01:18:02;;;;;;;2.35;1.23;;;;;;;-148.56;100.00;61375.16;5039920;28;20643;-29
2022/06/13 01:20:49;;;;;;;3.90;1.20;;;;;;;-148.56;100.00;61375.16;5036228;28;20036;-31
2022/06/13 01:23:36;;;;;;;7.28;1.30;;;;;;;-148.56;100.00;61375.16;5027333;28;20040;-29
2022/06/13 01:26:39;;;;;;;2.33;1.15;;;;;;;-148.56;100.00;61375.16;5039651;28;20044;-29
2022/06/13 01:29:26;;;;;;;4.05;1.33;;;;;;;-148.56;100.00;61375.16;5041121;28;20824;-28
2022/06/13 01:32:16;;;;;;;1.80;1.30;;;;;;;-148.56;100.00;61375.16;5037267;28;20029;-32
2022/06/13 01:35:03;;;;;;;2.88;1.35;;;;;;;-148.56;100.00;61375.16;5021958;28;20047;-34
2022/06/13 01:37:36;;;;;;;2.30;1.30;;;;;;;-148.56;100.00;61375.16;5037511;28;20025;-28
2022/06/13 01:40:14;;;;;;;1.38;1.10;;;;;;;-148.56;100.00;61375.16;5034173;28;20566;-30
2022/06/13 01:43:05;;;;;;;2.25;1.20;;;;;;;-148.56;100.00;61375.16;5035058;28;20044;-33
2022/06/13 01:45:36;;;;;;;3.60;1.60;;;;;;;-148.56;100.00;61375.16;5036027;28;20033;-29
2022/06/13 01:48:43;;;;;;;3.80;1.50;;;;;;;-148.56;100.00;61375.16;5041852;28;20029;-30
2022/06/13 01:51:19;;;;;;;2.15;1.25;;;;;;;-148.56;100.00;61375.16;5034599;28;20517;-30
2022/06/13 01:53:58;;;;;;;2.92;1.27;;;;;;;-148.56;100.00;61375.16;5018751;28;20142;-29
2022/06/13 01:56:35;;;;;;;3.92;1.67;;;;;;;-148.56;100.00;61375.16;5033330;28;20028;-30
2022/06/13 01:59:09;;;;;;;4.53;1.50;;;;;;;-148.56;100.00;61375.16;5036024;28;20691;-28
2022/06/13 02:01:37;;;;;;;2.78;1.30;;;;;;;-148.56;100.00;61375.16;5020535;28;20035;-29
2022/06/13 02:04:21;;;;;;;3.20;1.55;;;;;;;-148.56;100.00;61375.16;5034296;28;20037;-35
2022/06/13 02:06:49;;;;;;;2.88;1.10;;;;;;;-148.56;100.00;61375.16;5009204;28;20086;-30
2022/06/13 02:09:27;;;;;;;1.60;1.10;;;;;;;-148.56;100.00;61375.16;5017735;28;20013;-29
2022/06/13 02:11:53;;;;;;;3.42;1.50;;;;;;;-148.56;100.00;61375.16;5029967;28;20042;-28
2022/06/13 02:14:24;;;;;;;4.22;1.48;;;;;;;-148.56;100.00;61375.16;5035581;28;20025;-30
2022/06/13 02:16:54;;;;;;;2.75;1.23;;;;;;;-148.56;100.00;61375.16;5037685;28;20032;-30
2022/06/13 02:19:29;;;;;;;2.17;1.17;;;;;;;-148.56;100.00;61375.16;5038799;28;20065;-29
2022/06/13 02:21:59;;;;;;;1.83;1.10;;;;;;;-148.56;100.00;61375.16;5041652;28;20054;-29
2022/06/13 02:24:30;;;;;;;2.15;1.20;;;;;;;-148.56;100.00;61375.16;5040270;28;20029;-28
2022/06/13 02:26:56;;;;;;;1.80;1.20;;;;;;;-148.56;100.00;61375.16;5045397;28;20487;-29
2022/06/13 02:29:25;;;;;;;3.95;1.38;;;;;;;-148.56;100.00;61375.16;5048186;28;20044;-29
2022/06/13 02:31:56;;;;;;;2.20;1.23;;;;;;;-148.56;100.00;61375.16;5048275;28;20029;-31
2022/06/13 02:34:21;;;;;;;1.67;1.10;;;;;;;-148.56;100.00;61375.16;5034248;28;20086;-29
2022/06/13 02:36:55;;;;;;;2.80;1.45;;;;;;;-148.56;100.00;61375.16;5052171;28;20044;-29
2022/06/13 02:39:20;;;;;;;2.75;1.48;;;;;;;-148.56;100.00;61375.16;5056560;28;20033;-28
2022/06/13 02:42:09;;;;;;;2.70;1.20;;;;;;;-148.56;100.00;61375.16;5051015;28;20550;-29
2022/06/13 02:44:43;;;;;;;1.90;1.00;;;;;;;-148.56;100.00;61375.16;5051891;28;20390;-28
2022/06/13 02:47:30;;;;;;;5.85;1.40;;;;;;;-148.56;100.00;61375.16;5039219;28;20549;-29
2022/06/13 02:50:03;;;;;;;1.92;1.20;;;;;;;-148.56;100.00;61375.16;5050521;28;20133;-35
2022/06/13 02:52:46;;;;;;;2.38;1.13;;;;;;;-148.56;100.00;61375.16;5059436;28;20028;-30
2022/06/13 02:55:12;;;;;;;2.60;1.30;;;;;;;-148.56;100.00;61375.16;5053243;28;20025;-30
2022/06/13 02:57:40;;;;;;;1.58;1.08;;;;;;;-148.56;100.00;61375.16;5049464;28;20033;-33
2022/06/13 03:00:22;;;;;;;2.45;1.30;;;;;;;-148.56;100.00;61375.16;5042990;28;20032;-28
2022/06/13 03:03:17;;;;;;;3.28;1.15;;;;;;;-148.56;100.00;61375.16;5045375;28;20028;-30
2022/06/13 03:06:01;;;;;;;2.15;0.90;;;;;;;-148.56;100.00;61375.16;5035709;28;20457;-30
2022/06/13 03:08:49;;;;;;;1.55;1.00;;;;;;;-148.56;100.00;61375.16;5042308;28;20058;-33
2022/06/13 03:11:50;;;;;;;4.07;1.40;;;;;;;-148.56;100.00;61375.16;5040605;28;20096;-32
2022/06/13 03:14:37;;;;;;;1.70;1.15;;;;;;;-148.56;100.00;61375.16;5045596;28;20132;-32
2022/06/13 03:17:13;;;;;;;1.38;0.88;;;;;;;-148.56;100.00;61375.16;5040734;28;20703;-29
2022/06/13 03:19:43;;;;;;;2.47;1.17;;;;;;;-148.56;100.00;61375.16;5041982;28;20043;-34
2022/06/13 03:22:30;;;;;;;2.28;1.40;;;;;;;-148.56;100.00;61375.16;5046707;28;20044;-28
2022/06/13 03:25:01;;;;;;;1.52;1.15;;;;;;;-148.56;100.00;61375.16;5051056;28;20546;-33
2022/06/13 03:27:37;;;;;;;1.38;1.10;;;;;;;-148.56;100.00;61375.16;5051024;28;20027;-31
2022/06/13 03:30:11;;;;;;;4.55;1.30;;;;;;;-148.56;100.00;61375.16;5046577;28;20923;-32
2022/06/13 03:33:39;;;;;;;2.90;1.33;;;;;;;-148.56;100.00;61375.16;5045640;28;20086;-29
2022/06/13 03:35:34;;;;;;;2.45;1.33;;;;;;;-148.56;100.00;61375.16;5048932;28;20045;-33
2022/06/13 03:37:59;;;;;;;4.50;1.63;;;;;;;-148.56;100.00;61375.16;5050096;28;20016;-27
2022/06/13 03:40:26;;;;;;;3.33;1.40;;;;;;;-148.56;100.00;61375.16;5042832;28;20021;-29
2022/06/13 03:42:54;;;;;;;5.35;1.80;;;;;;;-148.56;100.00;61375.16;5036617;28;20028;-31
2022/06/13 03:45:31;;;;;;;3.15;1.38;;;;;;;-148.56;100.00;61375.16;5033600;28;20079;-35
2022/06/13 03:48:04;;;;;;;2.28;1.30;;;;;;;-148.56;100.00;61375.16;5019700;28;20048;-31
2022/06/13 03:50:42;;;;;;;4.35;1.42;;;;;;;-148.56;100.00;61375.16;5036039;28;20601;-31
2022/06/13 03:53:30;;;;;;;3.88;1.60;;;;;;;-148.56;100.00;61375.16;5035080;28;20415;-29
2022/06/13 03:56:17;;;;;;;3.33;1.52;;;;;;;-148.56;100.00;61375.16;5030631;28;20095;-29
2022/06/13 03:58:46;;;;;;;4.20;1.50;;;;;;;-148.56;100.00;61375.16;5045121;28;20028;-30
2022/06/13 04:01:21;;;;;;;3.83;1.55;;;;;;;-148.56;100.00;61375.16;5038034;28;20042;-30
2022/06/13 04:03:47;;;;;;;2.22;1.33;;;;;;;-148.56;100.00;61375.16;5030927;28;20028;-32
2022/06/13 04:06:48;;;;;;;2.88;1.55;;;;;;;-148.56;100.00;61375.16;5048661;28;20041;-34
2022/06/13 04:09:24;;;;;;;5.65;1.67;;;;;;;-148.56;100.00;61375.16;5023547;28;20040;-30
2022/06/13 04:12:11;;;;;;;5.80;1.70;;;;;;;-148.56;100.00;61375.16;5040875;28;20075;-29
2022/06/13 04:15:12;;;;;;;3.67;1.67;;;;;;;-148.56;100.00;61375.16;5052091;28;20063;-31
2022/06/13 04:18:05;;;;;;;2.95;1.63;;;;;;;-148.56;100.00;61375.16;5026785;28;20043;-28
2022/06/13 04:20:48;;;;;;;3.38;1.33;;;;;;;-148.56;100.00;61375.16;5046365;28;20565;-29
2022/06/13 04:23:35;;;;;;;3.30;1.67;;;;;;;-148.56;100.00;61375.16;5043507;28;20126;-30
2022/06/13 04:26:09;;;;;;;4.88;1.80;;;;;;;-148.56;100.00;61375.16;5041495;28;20036;-34
2022/06/13 04:28:42;;;;;;;3.83;1.50;;;;;;;-148.56;100.00;61375.16;5061556;28;20600;-30
2022/06/13 04:31:08;;;;;;;7.72;1.70;;;;;;;-148.56;100.00;61375.16;5025942;28;20126;-31
2022/06/13 04:33:36;;;;;;;3.90;1.90;;;;;;;-148.56;100.00;61375.16;5035002;28;20031;-32
2022/06/13 04:36:03;;;;;;;5.93;1.67;;;;;;;-148.56;100.00;61375.16;5038487;28;20591;-29
2022/06/13 04:38:28;;;;;;;3.38;1.50;;;;;;;-148.56;100.00;61375.16;5038851;28;20146;-34
2022/06/13 04:40:56;;;;;;;5.38;1.67;;;;;;;-148.56;100.00;61375.16;5039388;28;20028;-30
2022/06/13 04:43:23;;;;;;;5.20;1.92;;;;;;;-148.56;100.00;61375.16;5050887;28;20040;-31
2022/06/13 04:46:10;;;;;;;6.80;2.10;;;;;;;-148.56;100.00;61375.16;5035585;28;20021;-29
2022/06/13 04:48:40;;;;;;;3.25;1.73;;;;;;;-148.56;100.00;61375.16;5052600;28;20048;-29
2022/06/13 04:51:09;;;;;;;4.78;1.88;;;;;;;-148.56;100.00;61375.16;5019855;28;20119;-30
2022/06/13 04:53:49;;;;;;;4.07;2.05;;;;;;;-148.56;100.00;61375.16;5022422;28;20025;-29
2022/06/13 04:56:14;;;;;;;4.22;2.03;;;;;;;-148.56;100.00;61375.16;5036708;28;20071;-34
2022/06/13 04:58:40;;;;;;;5.72;2.38;;;;;;;-148.56;100.00;61375.16;5041032;28;20407;-30
2022/06/13 05:01:06;;;;;;;4.40;1.80;;;;;;;-148.56;100.00;61375.16;5026003;28;20032;-33
2022/06/13 05:03:35;;;;;;;5.15;1.92;;;;;;;-148.56;100.00;61375.16;5034296;28;20062;-29
2022/06/13 05:06:16;;;;;;;6.30;2.13;;;;;;;-148.56;100.00;61375.16;5033758;28;20039;-32
2022/06/13 05:08:41;;;;;;;3.35;1.60;;;;;;;-148.56;100.00;61375.16;5020479;28;20048;-28
2022/06/13 05:11:18;;;;;;;4.95;1.90;;;;;;;-148.56;100.00;61375.16;5033911;28;20055;-34
2022/06/13 05:13:44;;;;;;;4.55;1.88;;;;;;;-148.56;100.00;61375.16;5037633;28;20032;-29
2022/06/13 05:16:21;;;;;;;5.63;1.95;;;;;;;-148.56;100.00;61375.16;5035596;28;20763;-30
2022/06/13 05:19:17;;;;;;;4.35;2.00;;;;;;;-148.56;100.00;61375.16;5050481;28;20051;-30
2022/06/13 05:22:00;;;;;;;6.75;2.00;;;;;;;-148.56;100.00;61375.16;5035223;28;20047;-36
2022/06/13 05:24:57;;;;;;;4.72;1.90;;;;;;;-148.56;100.00;61375.16;5036158;28;20147;-28
2022/06/13 05:27:22;;;;;;;4.95;2.03;;;;;;;-148.56;100.00;61375.16;5036573;28;20041;-29
2022/06/13 05:29:47;;;;;;;7.43;1.90;;;;;;;-148.56;100.00;61375.16;5038886;28;20129;-30
2022/06/13 05:32:13;;;;;;;5.80;2.45;;;;;;;-148.56;100.00;61375.16;5035928;28;20040;-30
2022/06/13 05:34:40;;;;;;;3.83;1.88;;;;;;;-148.56;100.00;61375.16;5036062;28;20509;-30
2022/06/13 05:37:06;;;;;;;5.60;1.85;;;;;;;-148.56;100.00;61375.16;5032715;28;20065;-30
2022/06/13 05:39:31;;;;;;;6.63;2.22;;;;;;;-148.56;100.00;61375.16;5035974;28;20148;-30
2022/06/13 05:41:57;;;;;;;6.05;1.88;;;;;;;-148.56;100.00;61375.16;5019357;28;20087;-31
2022/06/13 05:44:22;;;;;;;5.45;2.15;;;;;;;-148.56;100.00;61375.16;5034748;28;20052;-30
2022/06/13 05:46:47;;;;;;;6.10;2.17;;;;;;;-148.56;100.00;61375.16;5034961;28;20047;-34
2022/06/13 05:49:13;;;;;;;5.88;2.00;;;;;;;-148.56;100.00;61375.16;5033643;28;20563;-31
2022/06/13 05:51:38;;;;;;;6.65;2.30;;;;;;;-148.56;100.00;61375.16;5035632;28;20040;-30
2022/06/13 05:54:04;;;;;;;7.43;2.15;;;;;;;-148.56;100.00;61375.16;5029813;28;20128;-34
2022/06/13 05:56:30;;;;;;;6.20;2.33;;;;;;;-148.56;100.00;61375.16;5031892;28;20612;-31
2022/06/13 05:58:55;;;;;;;7.63;2.13;;;;;;;-148.56;100.00;61375.16;5024936;28;20039;-31
2022/06/13 06:01:21;;;;;;;7.25;2.13;;;;;;;-148.56;100.00;61375.16;5036580;28;20028;-33
2022/06/13 06:03:46;;;;;;;5.60;2.05;;;;;;;-148.56;100.00;61375.16;5031742;28;20024;-33
2022/06/13 06:06:13;;;;;;;6.32;2.33;;;;;;;-148.56;100.00;61375.16;5041636;28;20039;-31
2022/06/13 06:08:39;;;;;;;10.25;2.40;;;;;;;-148.56;100.00;61375.16;5024731;28;20037;-30
2022/06/13 06:11:04;;;;;;;10.40;2.28;;;;;;;-148.56;100.00;61375.16;5033999;28;20041;-29
2022/06/13 06:13:30;;;;;;;7.38;2.20;;;;;;;-148.56;100.00;61375.16;5039935;28;20039;-33
2022/06/13 06:15:56;;;;;;;9.52;2.40;;;;;;;-148.56;100.00;61375.16;5044995;28;20117;-32
2022/06/13 06:18:22;;;;;;;7.25;2.70;;;;;;;-148.56;100.00;61375.16;5045044;28;20090;-30
2022/06/13 06:20:47;;;;;;;16.67;3.00;;;;;;;-148.56;100.00;61375.16;5044358;28;20031;-32
2022/06/13 06:23:13;;;;;;;19.40;2.95;;;;;;;-148.56;100.00;61375.16;5045928;28;20044;-29
2022/06/13 06:25:39;;;;;;;10.45;2.70;;;;;;;-148.56;100.00;61375.16;5043737;28;20047;-31
2022/06/13 06:28:04;;;;;;;10.43;2.65;;;;;;;-148.56;100.00;61375.16;5045915;28;20033;-31
2022/06/13 06:30:30;;;;;;;13.85;2.75;;;;;;;-148.56;100.00;61375.16;5043015;28;20295;-29
2022/06/13 06:32:56;;;;;;;10.63;2.58;;;;;;;-148.56;100.00;61375.16;5044733;28;20039;-28
2022/06/13 06:35:25;;;;;;;35.63;9.43;;;;;;;-148.56;100.00;61375.16;5046035;28;20064;-32
2022/06/13 06:37:51;;;;;;;21.92;5.10;;;;;;;-148.56;100.00;61375.16;5048534;28;20043;-29
2022/06/13 06:40:18;;;;;;;23.85;4.63;;;;;;;-148.56;100.00;61375.16;5039940;28;20032;-31
2022/06/13 06:42:43;;;;;;;17.95;3.65;;;;;;;-148.56;100.00;61375.16;5037948;28;20022;-36
2022/06/13 06:45:09;;;;;;;10.40;3.53;;;;;;;-148.56;100.00;61375.16;5035460;28;20961;-29
2022/06/13 06:47:35;;;;;;;13.35;3.75;;;;;;;-148.56;100.00;61375.16;5037172;28;20025;-34
2022/06/13 06:50:02;;;;;;;11.13;3.33;;;;;;;-148.56;100.00;61375.16;5034994;28;20024;-33
2022/06/13 06:52:28;;;;;;;12.13;3.28;;;;;;;-148.56;100.00;61375.16;5035794;28;20060;-32
2022/06/13 07:00:21;;;;;;;11.65;3.38;;;;;;;-148.56;100.00;61375.16;5036743;28;20039;-31
2022/06/13 07:02:47;;;;;;;12.05;3.17;;;;;;;-148.56;100.00;61375.16;5039898;28;20024;-29
2022/06/13 07:05:13;;;;;;;18.80;3.30;;;;;;;-148.56;100.00;61375.16;5037145;28;21932;-32
2022/06/13 07:07:38;;;;;;;22.08;3.78;;;;;;;-148.56;100.00;61375.16;5037651;28;20786;-30
2022/06/13 07:10:04;;;;;;;14.60;3.95;;;;;;;-148.56;100.00;61375.16;5036977;28;20060;-30
2022/06/13 07:12:29;;;;;;;34.58;4.20;;;;;;;-148.56;100.00;61375.16;5038495;28;20029;-30
2022/06/13 07:14:55;;;;;;;26.15;4.65;;;;;;;-148.56;100.00;61375.16;5035530;28;20567;-27
2022/06/13 07:17:22;;;;;;;27.02;4.55;;;;;;;-148.56;100.00;61375.16;5035308;28;20041;-29
2022/06/13 07:19:47;;;;;;;14.98;4.05;;;;;;;-148.56;100.00;61375.16;5028636;28;20041;-34
2022/06/13 07:22:17;;;;;;;20.85;3.53;;;;;;;-148.56;100.00;61375.16;5038827;28;20091;-30
2022/06/13 07:24:43;;;;;;;33.92;4.60;;;;;;;-148.56;100.00;61375.16;5037703;28;20053;-29
2022/06/13 07:27:09;;;;;;;16.15;3.70;;;;;;;-148.56;100.00;61375.16;5028760;28;20025;-32
2022/06/13 07:29:34;;;;;;;21.60;4.50;;;;;;;-148.56;100.00;61375.16;5034919;28;20028;-29
2022/06/13 07:32:04;;;;;;;12.15;3.45;;;;;;;-148.56;100.00;61375.16;5030490;28;20035;-29
2022/06/13 07:34:30;;;;;;;9.98;3.05;;;;;;;-148.56;100.00;61375.16;5029423;28;20036;-27
2022/06/13 07:36:57;;;;;;;11.05;3.22;;;;;;;-148.56;100.00;61375.16;5036208;28;20043;-29
2022/06/13 07:39:22;;;;;;;13.00;3.20;;;;;;;-148.56;100.00;61375.16;5027200;28;20143;-28
2022/06/13 07:41:47;;;;;;;10.07;3.35;;;;;;;-148.56;100.00;61375.16;5033152;28;20023;-28
2022/06/13 07:44:21;;;;;;;14.25;3.60;;;;;;;-148.56;100.00;61375.16;5029648;28;20025;-28
2022/06/13 07:46:46;;;;;;;10.00;2.90;;;;;;;-148.56;100.00;61375.16;5027350;28;20803;-27
2022/06/13 07:49:13;;;;;;;11.13;3.33;;;;;;;-148.56;100.00;61375.16;5030796;28;20032;-30
2022/06/13 07:51:38;;;;;;;14.90;3.30;;;;;;;-148.56;100.00;61375.16;5032341;28;20130;-29
2022/06/13 07:54:03;;;;;;;7.80;2.90;;;;;;;-148.56;100.00;61375.16;5033989;28;20040;-29
2022/06/13 07:56:29;;;;;;;16.02;3.65;;;;;;;-148.56;100.00;61375.16;5029814;28;20593;-30
2022/06/13 07:58:55;;;;;;;14.80;3.10;;;;;;;-148.56;100.00;61375.16;5032458;28;20491;-29
2022/06/13 08:01:21;;;;;;;13.57;2.97;;;;;;;-148.56;100.00;61375.16;5032516;28;20044;-28
2022/06/13 08:03:47;;;;;;;19.70;3.13;;;;;;;-148.56;100.00;61375.16;5031893;28;21142;-29
2022/06/13 08:06:13;;;;;;;7.85;2.70;;;;;;;-148.56;100.00;61375.16;5035055;28;20055;-29
2022/06/13 08:08:42;;;;;;;9.45;3.10;;;;;;;-148.56;100.00;61375.16;5038254;28;20667;-28
2022/06/13 08:11:08;;;;;;;10.32;2.72;;;;;;;-148.56;100.00;61375.16;5039556;28;20032;-29
2022/06/13 08:13:34;;;;;;;11.32;3.13;;;;;;;-148.56;100.00;61375.16;5046117;28;20067;-28
2022/06/13 08:16:00;;;;;;;9.30;2.80;;;;;;;-148.56;100.00;61375.16;5052179;28;20143;-27
2022/06/13 08:18:25;;;;;;;13.93;2.80;;;;;;;-148.56;100.00;61375.16;5051743;28;20033;-28
2022/06/13 08:20:51;;;;;;;9.73;2.80;;;;;;;-148.56;100.00;61375.16;5044673;28;20020;-31
2022/06/13 08:23:17;;;;;;;11.98;2.97;;;;;;;-148.56;100.00;61375.16;5037595;28;20036;-29
2022/06/13 08:25:43;;;;;;;10.93;3.28;;;;;;;-148.56;100.00;61375.16;5043310;28;20027;-28
2022/06/13 08:28:09;;;;;;;14.15;3.53;;;;;;;-148.56;100.00;61375.16;5040269;28;20655;-30
2022/06/13 08:30:49;;;;;;;11.90;3.05;;;;;;;-148.56;100.00;61375.16;5039384;28;20064;-28
2022/06/13 08:33:15;;;;;;;13.82;3.35;;;;;;;-148.56;100.00;61375.16;5043320;28;20032;-28
2022/06/13 08:35:40;;;;;;;19.73;3.13;;;;;;;-148.56;100.00;61375.16;5043532;28;20117;-28
2022/06/13 08:38:06;;;;;;;18.02;3.33;;;;;;;-148.56;100.00;61375.16;5034649;28;20028;-27
2022/06/13 08:40:51;;;;;;;20.27;3.60;;;;;;;-148.56;100.00;61375.16;5030543;28;20115;-28
2022/06/13 08:43:20;;;;;;;21.13;3.70;;;;;;;-148.56;100.00;61375.16;5029495;28;20048;-27
2022/06/13 08:45:51;;;;;;;21.23;3.92;;;;;;;-148.56;100.00;61375.16;5031017;28;20235;-29
2022/06/13 08:48:24;;;;;;;17.65;3.63;;;;;;;-148.56;100.00;61375.16;5015286;28;20052;-28
2022/06/13 08:51:01;;;;;;;14.68;2.95;;;;;;;-148.56;100.00;61375.16;5027623;28;20144;-28
2022/06/13 08:53:57;;;;;;;14.23;2.67;;;;;;;-148.56;100.00;61375.16;5057067;28;20035;-28
2022/06/13 08:56:25;;;;;;;8.27;3.03;;;;;;;-148.56;100.00;61375.16;5045707;28;20075;-28
2022/06/13 08:58:59;;;;;;;12.07;3.30;;;;;;;-148.56;100.00;61375.16;5029486;28;20575;-29
2022/06/13 09:01:35;;;;;;;17.60;3.97;;;;;;;-148.56;100.00;61375.16;5046897;28;20031;-28
2022/06/13 09:04:09;;;;;;;14.45;3.08;;;;;;;-148.56;100.00;61375.16;5042041;28;20500;-28
2022/06/13 09:06:47;;;;;;;15.05;3.80;;;;;;;-148.56;100.00;61375.16;5050621;28;20040;-28
2022/06/13 09:09:24;;;;;;;12.82;3.58;;;;;;;-148.56;100.00;61375.16;5033015;28;20043;-27
2022/06/13 09:11:58;;;;;;;10.13;3.45;;;;;;;-148.56;100.00;61375.16;5049757;28;20032;-28
2022/06/13 09:14:33;;;;;;;12.55;3.88;;;;;;;-148.56;100.00;61375.16;5041698;28;20173;-29
2022/06/13 09:17:13;;;;;;;12.32;3.75;;;;;;;-148.56;100.00;61375.16;5047637;28;20769;-28
2022/06/13 09:19:54;;;;;;;9.90;3.22;;;;;;;-148.56;100.00;61375.16;5050026;28;20042;-28
2022/06/13 09:22:24;;;;;;;8.65;3.22;;;;;;;-148.56;100.00;61375.16;5049357;28;20036;-29
2022/06/13 09:25:19;;;;;;;10.30;3.20;;;;;;;-148.56;100.00;61375.16;5048581;28;20162;-29
2022/06/13 09:28:19;;;;;;;16.40;3.70;;;;;;;-148.56;100.00;61375.16;5044959;28;20032;-28
2022/06/13 09:30:49;;;;;;;11.38;3.03;;;;;;;-148.56;100.00;61375.16;5042859;28;20036;-29
2022/06/13 09:33:26;;;;;;;10.02;3.10;;;;;;;-148.56;100.00;61375.16;5032736;28;20629;-29
2022/06/13 09:35:59;;;;;;;14.65;4.00;;;;;;;-148.56;100.00;61375.16;5050340;28;20060;-28
2022/06/13 09:38:28;;;;;;;17.95;4.40;;;;;;;-148.56;100.00;61375.16;5046205;28;20029;-27
2022/06/13 09:41:03;;;;;;;19.33;4.47;;;;;;;-148.56;100.00;61375.16;5046549;28;20894;-31
2022/06/13 09:43:56;;;;;;;16.98;4.72;;;;;;;-148.56;100.00;61375.16;5051132;28;20032;-30
2022/06/13 09:46:40;;;;;;;17.73;4.28;;;;;;;-148.56;100.00;61375.16;5045285;28;20106;-28
2022/06/13 09:49:19;;;;;;;23.20;4.70;;;;;;;-148.56;100.00;61375.16;5044297;28;20024;-31
2022/06/13 09:52:02;;;;;;;21.38;4.55;;;;;;;-148.56;100.00;61375.16;5046333;28;20125;-32
2022/06/13 09:54:49;;;;;;;15.57;4.82;;;;;;;-148.56;100.00;61375.16;5046711;28;20041;-30
2022/06/13 09:57:29;;;;;;;16.15;4.80;;;;;;;-148.56;100.00;61375.16;5051409;28;20755;-30
2022/06/13 10:00:00;;;;;;;17.38;3.70;;;;;;;-148.56;100.00;61375.16;5053214;28;20094;-29
2022/06/13 10:02:34;;;;;;;18.38;4.47;;;;;;;-148.56;100.00;61375.16;5046670;28;20033;-29
2022/06/13 10:05:02;;;;;;;17.92;4.45;;;;;;;-148.56;100.00;61375.16;5048215;28;20036;-29
2022/06/13 10:07:59;;;;;;;13.82;4.72;;;;;;;-148.56;100.00;61375.16;5046356;28;20033;-30
2022/06/13 10:10:40;;;;;;;11.52;3.95;;;;;;;-148.56;100.00;61375.16;5045865;28;20034;-30
2022/06/13 10:13:24;;;;;;;15.25;4.03;;;;;;;-148.56;100.00;61375.16;5045124;28;20033;-34
2022/06/13 10:16:04;;;;;;;16.55;3.75;;;;;;;-148.56;100.00;61375.16;5035470;28;20037;-29
2022/06/13 10:18:45;;;;;;;13.38;3.33;;;;;;;-148.56;100.00;61375.16;5044025;28;20028;-30
2022/06/13 10:21:36;;;;;;;16.75;3.78;;;;;;;-148.56;100.00;61375.16;5038676;28;20025;-29
2022/06/13 10:24:16;;;;;;;13.55;3.88;;;;;;;-148.56;100.00;61375.16;5038742;28;20114;-29
2022/06/13 10:27:04;;;;;;;14.82;3.28;;;;;;;-148.56;100.00;61375.16;5037898;28;20897;-32
2022/06/13 10:29:36;;;;;;;12.32;3.88;;;;;;;-148.56;100.00;61375.16;5045651;28;20041;-29
2022/06/13 10:32:38;;;;;;;14.43;3.42;;;;;;;-148.56;100.00;61375.16;5035772;28;20021;-30
2022/06/13 10:35:24;;;;;;;8.32;3.22;;;;;;;-148.56;100.00;61375.16;5041368;28;20132;-31
2022/06/13 10:37:50;;;;;;;7.45;2.80;;;;;;;-148.56;100.00;61375.16;5042265;28;20802;-29
2022/06/13 10:40:15;;;;;;;13.43;3.30;;;;;;;-148.56;100.00;61375.16;5038831;28;20051;-31
2022/06/13 10:42:41;;;;;;;12.18;3.20;;;;;;;-148.56;100.00;61375.16;5044497;28;20035;-30
2022/06/13 10:45:07;;;;;;;8.32;2.63;;;;;;;-148.56;100.00;61375.16;5043518;28;20037;-29
2022/06/13 10:47:57;;;;;;;7.68;2.72;;;;;;;-148.56;100.00;61375.16;5031685;28;20025;-31
2022/06/13 10:50:33;;;;;;;6.43;2.58;;;;;;;-148.56;100.00;61375.16;5030587;28;21298;-34
2022/06/13 10:53:05;;;;;;;8.57;2.55;;;;;;;-148.56;100.00;61375.16;5036207;28;20601;-30
2022/06/13 10:55:33;;;;;;;6.13;2.58;;;;;;;-148.56;100.00;61375.16;5016917;28;20082;-30
2022/06/13 10:58:03;;;;;;;8.13;2.65;;;;;;;-148.56;100.00;61375.16;5038527;28;20111;-31
2022/06/13 11:00:29;;;;;;;6.75;2.80;;;;;;;-148.56;100.00;61375.16;5022560;28;20024;-30
2022/06/13 11:03:14;;;;;;;9.27;2.67;;;;;;;-148.56;100.00;61375.16;5034292;28;20086;-28
2022/06/13 11:05:50;;;;;;;7.47;2.40;;;;;;;-148.56;100.00;61375.16;5027416;28;20029;-29
2022/06/13 11:08:15;;;;;;;7.53;2.35;;;;;;;-148.56;100.00;61375.16;5039248;28;20029;-32
2022/06/13 11:10:41;;;;;;;6.10;2.47;;;;;;;-148.56;100.00;61375.16;5044617;28;20029;-29
2022/06/13 11:13:14;;;;;;;6.13;2.28;;;;;;;-148.56;100.00;61375.16;5032231;28;20036;-32
2022/06/13 11:24:22;;;;;;;6.50;2.13;;;;;;;-148.56;100.00;61375.16;5042453;28;20039;-31
2022/06/13 11:29:33;;;;;;;3.70;2.00;;;;;;;-148.56;100.00;61375.16;5032370;28;20738;-33
2022/06/13 11:32:00;;;;;;;4.57;2.13;;;;;;;-148.56;100.00;61375.16;5003386;28;20028;-28
2022/06/13 11:34:30;;;;;;;7.78;2.40;;;;;;;-148.56;100.00;61375.16;5012115;28;20900;-29
2022/06/13 11:36:57;;;;;;;8.30;2.30;;;;;;;-148.56;100.00;61375.16;5016393;28;20052;-31
2022/06/13 11:39:37;;;;;;;4.95;2.20;;;;;;;-148.56;100.00;61375.16;5019717;28;20055;-38
2022/06/13 11:42:03;;;;;;;4.65;2.08;;;;;;;-148.56;100.00;61375.16;5011937;28;20635;-29
2022/06/13 11:44:28;;;;;;;7.22;2.38;;;;;;;-148.56;100.00;61375.16;5014083;28;21680;-31
2022/06/13 11:46:54;;;;;;;4.80;1.90;;;;;;;-148.56;100.00;61375.16;5030324;28;20529;-32
2022/06/13 11:49:30;;;;;;;5.72;2.13;;;;;;;-148.56;100.00;61375.16;5033486;28;20063;-31
2022/06/13 11:52:11;;;;;;;4.13;1.88;;;;;;;-148.56;100.00;61375.16;5040593;28;20032;-29